Time;durP1;ratioP1;P1;durP2;ratioP2;P2;SDS_P1;SDS_P2;PMS_P1;PMS_P2;Temp;Humidity;BMP_temperature;BMP_pressure;BME280_temperature;BME280_humidity;BME280_pressure;Samples;Min_cycle;Max_cycle;Signal;HPM_P1;HPM_P2
2024/01/19 00:00:09;;;;;;;27.02;12.45;;;0.40;99.90;;;;;;4985757;28;20382;-72
2024/01/19 00:02:35;;;;;;;26.77;12.82;;;0.40;99.90;;;;;;4986018;28;20041;-72
2024/01/19 00:05:00;;;;;;;31.25;13.68;;;0.40;99.90;;;;;;4985972;28;20049;-72
2024/01/19 00:07:26;;;;;;;24.67;13.30;;;0.40;99.90;;;;;;4986467;28;20397;-72
2024/01/19 00:09:51;;;;;;;29.67;13.02;;;0.40;99.90;;;;;;4987227;28;20049;-72
2024/01/19 00:12:17;;;;;;;27.15;13.18;;;0.50;99.90;;;;;;4986417;28;20450;-72
2024/01/19 00:14:42;;;;;;;32.55;14.05;;;0.40;99.90;;;;;;4987955;28;20585;-72
2024/01/19 00:17:08;;;;;;;27.08;13.35;;;0.50;99.90;;;;;;4984490;28;20039;-72
2024/01/19 00:19:34;;;;;;;27.73;13.23;;;0.40;99.90;;;;;;4988002;28;20062;-72
2024/01/19 00:21:59;;;;;;;26.80;13.48;;;0.40;99.90;;;;;;4985859;28;20413;-72
2024/01/19 00:24:25;;;;;;;27.30;13.40;;;0.50;99.90;;;;;;4985124;28;20104;-74
2024/01/19 00:26:50;;;;;;;32.95;13.10;;;0.50;99.90;;;;;;4987521;28;20049;-73
2024/01/19 00:29:17;;;;;;;28.98;14.35;;;0.50;99.90;;;;;;4986059;28;20036;-73
2024/01/19 00:31:45;;;;;;;34.65;14.70;;;0.50;99.90;;;;;;4987824;28;20655;-73
2024/01/19 00:34:12;;;;;;;32.42;15.15;;;0.50;99.90;;;;;;4986132;28;21290;-74
2024/01/19 00:36:38;;;;;;;30.35;14.80;;;0.50;99.90;;;;;;4987536;28;20069;-74
2024/01/19 00:39:04;;;;;;;26.55;13.60;;;0.50;99.90;;;;;;4987256;28;20022;-73
2024/01/19 00:41:29;;;;;;;28.48;13.50;;;0.50;99.90;;;;;;4982111;28;20037;-73
2024/01/19 00:43:55;;;;;;;34.42;14.77;;;0.50;99.90;;;;;;4986238;28;20529;-73
2024/01/19 00:46:21;;;;;;;29.40;14.80;;;0.50;99.90;;;;;;4985974;28;20036;-73
2024/01/19 00:48:47;;;;;;;32.10;13.98;;;0.40;99.90;;;;;;4985317;28;20030;-73
2024/01/19 00:51:13;;;;;;;25.95;13.07;;;0.40;99.90;;;;;;4982353;28;20508;-73
2024/01/19 00:53:38;;;;;;;30.48;13.82;;;0.40;99.90;;;;;;4985789;28;20019;-73
2024/01/19 00:56:05;;;;;;;28.33;12.63;;;0.40;99.90;;;;;;4988158;28;20033;-74
2024/01/19 00:58:31;;;;;;;28.30;13.32;;;0.30;99.90;;;;;;4986266;28;20019;-73
2024/01/19 01:00:56;;;;;;;25.13;13.30;;;0.30;99.90;;;;;;4985163;28;20033;-73
2024/01/19 01:03:26;;;;;;;30.27;14.52;;;0.30;99.90;;;;;;4986696;28;20058;-73
2024/01/19 01:05:58;;;;;;;25.80;13.70;;;0.30;99.90;;;;;;4986803;28;20041;-72
2024/01/19 01:08:25;;;;;;;33.90;14.90;;;0.30;99.90;;;;;;4986618;28;20545;-73
2024/01/19 01:10:51;;;;;;;31.35;15.00;;;0.30;99.90;;;;;;4986737;28;20058;-73
2024/01/19 01:13:17;;;;;;;29.60;14.73;;;0.30;99.90;;;;;;4987290;28;20033;-72
2024/01/19 01:15:42;;;;;;;29.55;13.55;;;0.30;99.90;;;;;;4986190;28;20038;-73
2024/01/19 01:18:08;;;;;;;28.90;14.25;;;0.30;99.90;;;;;;4986201;28;20101;-73
2024/01/19 01:20:34;;;;;;;31.63;13.90;;;0.30;99.90;;;;;;4985411;28;20133;-73
2024/01/19 01:22:59;;;;;;;34.22;15.52;;;0.30;99.90;;;;;;4985502;28;20106;-73
2024/01/19 01:25:25;;;;;;;28.13;14.60;;;0.30;99.90;;;;;;4984789;28;20031;-72
2024/01/19 01:27:50;;;;;;;34.83;17.05;;;0.30;99.90;;;;;;4985068;28;20030;-72
2024/01/19 01:30:16;;;;;;;34.70;15.07;;;0.40;99.90;;;;;;4985788;28;20026;-73
2024/01/19 01:32:41;;;;;;;29.48;14.02;;;0.40;99.90;;;;;;4986271;28;20033;-73
2024/01/19 01:35:07;;;;;;;29.13;14.57;;;0.40;99.90;;;;;;4987581;28;20023;-73
2024/01/19 01:37:33;;;;;;;36.88;15.50;;;0.40;99.90;;;;;;4984973;28;20026;-73
2024/01/19 01:39:58;;;;;;;34.97;15.60;;;0.40;99.90;;;;;;4985629;28;20033;-73
2024/01/19 01:42:24;;;;;;;33.20;15.93;;;0.40;99.90;;;;;;4986794;28;20401;-73
2024/01/19 01:44:50;;;;;;;32.72;14.73;;;0.50;99.90;;;;;;4989200;28;20076;-73
2024/01/19 01:47:16;;;;;;;28.65;13.93;;;0.50;99.90;;;;;;4985747;28;20389;-72
2024/01/19 01:49:42;;;;;;;34.13;16.67;;;0.50;99.90;;;;;;4985979;28;20426;-72
2024/01/19 01:52:09;;;;;;;34.45;15.43;;;0.50;99.90;;;;;;4985281;28;20165;-73
2024/01/19 01:54:35;;;;;;;35.75;15.85;;;0.50;99.90;;;;;;4987542;28;20019;-72
2024/01/19 01:57:02;;;;;;;28.80;14.07;;;0.40;99.90;;;;;;4984479;28;20031;-72
2024/01/19 01:59:29;;;;;;;34.58;15.38;;;0.50;99.90;;;;;;4985359;28;20363;-73
2024/01/19 02:01:54;;;;;;;37.70;16.20;;;0.40;99.90;;;;;;4983132;28;20549;-73
2024/01/19 02:04:20;;;;;;;31.52;15.40;;;0.50;99.90;;;;;;4989266;28;20149;-72
2024/01/19 02:06:46;;;;;;;30.50;14.55;;;0.50;99.90;;;;;;4988956;28;20113;-73
2024/01/19 02:09:13;;;;;;;29.83;13.63;;;0.50;99.90;;;;;;4990229;28;20276;-72
2024/01/19 02:11:39;;;;;;;29.88;15.45;;;0.50;99.90;;;;;;4987784;28;20051;-72
2024/01/19 02:14:05;;;;;;;30.42;14.57;;;0.50;99.90;;;;;;4988130;28;20389;-73
2024/01/19 02:16:32;;;;;;;31.05;15.25;;;0.50;99.90;;;;;;4988894;28;20413;-72
2024/01/19 02:18:57;;;;;;;27.42;14.82;;;0.50;99.90;;;;;;4989281;28;20038;-73
2024/01/19 02:21:23;;;;;;;35.88;16.27;;;0.50;99.90;;;;;;4988631;28;20023;-72
2024/01/19 02:24:02;;;;;;;32.97;15.50;;;0.50;99.90;;;;;;4987414;28;20394;-72
2024/01/19 02:26:33;;;;;;;30.23;14.73;;;0.60;99.90;;;;;;4990290;28;20034;-72
2024/01/19 02:28:59;;;;;;;31.75;14.38;;;0.50;99.90;;;;;;4989233;28;20041;-72
2024/01/19 02:31:24;;;;;;;33.67;14.05;;;0.60;99.90;;;;;;4988517;28;20055;-73
2024/01/19 02:33:50;;;;;;;33.05;14.25;;;0.50;99.90;;;;;;4988962;28;20486;-73
2024/01/19 02:36:16;;;;;;;36.05;15.20;;;0.50;99.90;;;;;;4990909;28;20022;-73
2024/01/19 02:38:41;;;;;;;36.78;16.00;;;0.60;99.90;;;;;;4991246;28;20022;-72
2024/01/19 02:41:07;;;;;;;27.98;13.93;;;0.60;99.90;;;;;;4989319;28;20401;-72
2024/01/19 02:43:32;;;;;;;32.22;14.75;;;0.50;99.90;;;;;;4987820;28;20161;-72
2024/01/19 02:45:58;;;;;;;33.22;13.68;;;0.60;99.90;;;;;;4986672;28;20041;-73
2024/01/19 02:48:24;;;;;;;26.33;12.75;;;0.50;99.90;;;;;;4990074;28;20029;-73
2024/01/19 02:50:49;;;;;;;27.17;13.68;;;0.60;99.90;;;;;;4989488;28;20040;-72
2024/01/19 02:53:15;;;;;;;28.25;14.85;;;0.50;99.90;;;;;;4989533;28;20022;-72
2024/01/19 02:55:40;;;;;;;30.65;13.00;;;0.60;99.90;;;;;;4986832;28;20218;-71
2024/01/19 02:58:06;;;;;;;28.67;13.50;;;0.60;99.90;;;;;;4988257;28;20026;-71
2024/01/19 03:00:31;;;;;;;35.40;13.00;;;0.60;99.90;;;;;;4989771;28;20042;-71
2024/01/19 03:02:57;;;;;;;26.27;11.93;;;0.60;99.90;;;;;;4990038;28;20034;-73
2024/01/19 03:05:23;;;;;;;27.40;11.95;;;0.60;99.90;;;;;;4986751;28;20045;-72
2024/01/19 03:07:48;;;;;;;27.23;12.20;;;0.60;99.90;;;;;;4988246;28;20540;-72
2024/01/19 03:10:14;;;;;;;26.02;12.45;;;0.60;99.90;;;;;;4988612;28;20023;-72
2024/01/19 03:12:39;;;;;;;24.55;12.57;;;0.50;99.90;;;;;;4989066;28;20088;-73
2024/01/19 03:15:05;;;;;;;29.80;13.48;;;0.50;99.90;;;;;;4989210;28;20452;-72
2024/01/19 03:17:33;;;;;;;26.55;13.18;;;0.50;99.90;;;;;;4986783;28;20022;-72
2024/01/19 03:19:59;;;;;;;27.17;13.43;;;0.50;99.90;;;;;;4987772;28;20030;-72
2024/01/19 03:22:24;;;;;;;28.35;13.25;;;0.50;99.90;;;;;;4990448;28;20429;-71
2024/01/19 03:24:50;;;;;;;28.30;13.10;;;0.50;99.90;;;;;;4989724;28;20030;-73
2024/01/19 03:27:16;;;;;;;25.40;13.18;;;0.50;99.90;;;;;;4987497;28;20475;-72
2024/01/19 03:29:41;;;;;;;22.27;12.50;;;0.50;99.90;;;;;;4986868;28;20385;-72
2024/01/19 03:32:07;;;;;;;28.02;12.65;;;0.50;99.90;;;;;;4990396;28;20113;-72
2024/01/19 03:34:32;;;;;;;25.02;12.18;;;0.50;99.90;;;;;;4989611;28;20052;-72
2024/01/19 03:37:03;;;;;;;25.33;12.98;;;0.50;99.90;;;;;;4990449;28;20022;-72
2024/01/19 03:39:30;;;;;;;25.60;12.13;;;0.50;99.90;;;;;;4986560;28;20046;-72
2024/01/19 03:41:55;;;;;;;26.65;11.70;;;0.50;99.90;;;;;;4988362;28;20437;-72
2024/01/19 03:44:23;;;;;;;26.25;12.80;;;0.50;99.90;;;;;;4987191;28;20030;-72
2024/01/19 03:46:49;;;;;;;27.20;12.35;;;0.50;99.90;;;;;;4985155;28;20102;-71
2024/01/19 03:49:15;;;;;;;25.35;11.23;;;0.60;99.90;;;;;;4988673;28;20034;-71
2024/01/19 03:52:00;;;;;;;29.95;11.65;;;0.50;99.90;;;;;;4989392;28;20030;-73
2024/01/19 03:54:26;;;;;;;32.20;12.93;;;0.60;99.90;;;;;;4989377;28;20474;-73
2024/01/19 03:56:53;;;;;;;28.38;12.68;;;0.50;99.90;;;;;;4988454;28;20018;-73
2024/01/19 03:59:18;;;;;;;24.58;11.65;;;0.60;99.90;;;;;;4987890;28;20058;-73
2024/01/19 04:01:44;;;;;;;25.30;12.75;;;0.50;99.90;;;;;;4987664;28;20062;-73
2024/01/19 04:04:09;;;;;;;24.17;11.40;;;0.50;99.90;;;;;;4989193;28;20103;-73
2024/01/19 04:06:35;;;;;;;23.90;11.10;;;0.50;99.90;;;;;;4985120;28;20030;-71
2024/01/19 04:09:01;;;;;;;28.88;13.18;;;0.40;99.90;;;;;;4988249;28;20030;-71
2024/01/19 04:11:27;;;;;;;29.30;12.25;;;0.40;99.90;;;;;;4986684;28;20125;-73
2024/01/19 04:13:52;;;;;;;26.33;11.85;;;0.40;99.90;;;;;;4988134;28;20030;-73
2024/01/19 04:16:18;;;;;;;27.00;12.45;;;0.30;99.90;;;;;;4984256;28;20058;-72
2024/01/19 04:18:43;;;;;;;26.48;12.32;;;0.30;99.90;;;;;;4987405;28;20201;-72
2024/01/19 04:21:09;;;;;;;25.42;12.90;;;0.30;99.90;;;;;;4989380;28;20117;-72
2024/01/19 04:23:35;;;;;;;25.77;12.02;;;0.20;99.90;;;;;;4984614;28;20157;-72
2024/01/19 04:26:01;;;;;;;27.33;12.65;;;0.20;99.90;;;;;;4984798;28;20053;-73
2024/01/19 04:28:27;;;;;;;26.80;12.05;;;0.20;99.90;;;;;;4984692;28;20498;-71
2024/01/19 04:30:52;;;;;;;24.83;12.68;;;0.20;99.90;;;;;;4986337;28;20502;-73
2024/01/19 04:33:18;;;;;;;25.65;12.27;;;0.20;99.90;;;;;;4987359;28;20023;-73
2024/01/19 04:35:43;;;;;;;30.05;12.95;;;0.20;99.90;;;;;;4985077;28;20030;-72
2024/01/19 04:38:09;;;;;;;32.67;13.60;;;0.30;99.90;;;;;;4984375;28;20442;-72
2024/01/19 04:40:34;;;;;;;28.08;12.48;;;0.30;99.90;;;;;;4988232;28;20125;-72
2024/01/19 04:43:00;;;;;;;24.10;12.05;;;0.30;99.90;;;;;;4987383;28;20113;-72
2024/01/19 04:45:25;;;;;;;29.15;12.88;;;0.30;99.90;;;;;;4985243;28;20030;-72
2024/01/19 04:47:51;;;;;;;26.50;12.90;;;0.30;99.90;;;;;;4984905;28;20034;-71
2024/01/19 04:50:16;;;;;;;26.55;12.90;;;0.30;99.90;;;;;;4987481;28;20285;-72
2024/01/19 04:52:42;;;;;;;28.40;12.25;;;0.30;99.90;;;;;;4986606;28;20399;-72
2024/01/19 04:55:08;;;;;;;26.25;12.75;;;0.30;99.90;;;;;;4986972;28;20030;-72
2024/01/19 04:57:33;;;;;;;28.35;12.52;;;0.30;99.90;;;;;;4986795;28;21121;-71
2024/01/19 04:59:59;;;;;;;24.67;13.00;;;0.30;99.90;;;;;;4987264;28;20080;-72
2024/01/19 05:02:25;;;;;;;24.77;12.63;;;0.30;99.90;;;;;;4987174;28;20031;-72
2024/01/19 05:04:50;;;;;;;21.13;12.07;;;0.30;99.90;;;;;;4986514;28;20114;-72
2024/01/19 05:07:16;;;;;;;25.30;12.77;;;0.30;99.90;;;;;;4989198;28;20085;-72
2024/01/19 05:09:41;;;;;;;30.27;11.75;;;0.40;99.90;;;;;;4988946;28;20425;-72
2024/01/19 05:12:07;;;;;;;26.00;13.05;;;0.30;99.90;;;;;;4986757;28;20552;-72
2024/01/19 05:14:33;;;;;;;30.65;12.85;;;0.40;99.90;;;;;;4988044;28;20026;-73
2024/01/19 05:16:58;;;;;;;28.17;12.50;;;0.40;99.90;;;;;;4986602;28;20101;-72
2024/01/19 05:19:27;;;;;;;25.52;12.38;;;0.40;99.90;;;;;;4985793;28;20505;-73
2024/01/19 05:21:52;;;;;;;26.95;13.85;;;0.40;99.90;;;;;;4985014;28;20058;-73
2024/01/19 05:24:18;;;;;;;31.73;14.70;;;0.40;99.90;;;;;;4988019;28;20081;-73
2024/01/19 05:26:44;;;;;;;31.00;14.20;;;0.40;99.90;;;;;;4987076;28;20045;-74
2024/01/19 05:29:09;;;;;;;32.40;14.88;;;0.40;99.90;;;;;;4988395;28;20088;-73
2024/01/19 05:31:35;;;;;;;28.80;14.02;;;0.40;99.90;;;;;;4985062;28;20030;-71
2024/01/19 05:34:00;;;;;;;32.40;13.90;;;0.40;99.90;;;;;;4986255;28;20023;-71
2024/01/19 05:36:26;;;;;;;31.58;14.48;;;0.40;99.90;;;;;;4985725;28;20026;-71
2024/01/19 05:38:52;;;;;;;25.73;13.13;;;0.40;99.90;;;;;;4990250;28;20088;-71
2024/01/19 05:41:21;;;;;;;23.55;12.23;;;0.40;99.90;;;;;;4989762;28;20034;-71
2024/01/19 05:43:47;;;;;;;23.80;12.18;;;0.40;99.90;;;;;;4994919;28;20497;-72
2024/01/19 05:46:16;;;;;;;26.00;12.05;;;0.40;99.90;;;;;;4996196;28;20105;-71
2024/01/19 05:48:41;;;;;;;22.67;10.95;;;0.50;99.90;;;;;;4999502;28;20026;-72
2024/01/19 05:51:14;;;;;;;27.13;11.00;;;0.40;99.90;;;;;;4991942;28;20049;-72
2024/01/19 05:53:40;;;;;;;24.35;12.88;;;0.40;99.90;;;;;;4989076;28;20061;-71
2024/01/19 05:56:06;;;;;;;26.20;10.88;;;0.40;99.90;;;;;;4988502;28;20124;-71
2024/01/19 05:58:31;;;;;;;28.05;12.20;;;0.50;99.90;;;;;;4992920;28;20030;-71
2024/01/19 06:00:57;;;;;;;25.33;11.85;;;0.50;99.90;;;;;;4990907;28;20101;-72
2024/01/19 06:03:23;;;;;;;34.55;14.25;;;0.50;99.90;;;;;;4992873;28;20030;-71
2024/01/19 06:05:48;;;;;;;32.50;14.27;;;0.50;99.90;;;;;;4988741;28;20042;-72
2024/01/19 06:08:14;;;;;;;43.40;17.08;;;0.40;99.90;;;;;;4988168;28;20030;-73
2024/01/19 06:10:40;;;;;;;44.00;17.25;;;0.50;99.90;;;;;;4991483;28;20023;-71
2024/01/19 06:13:06;;;;;;;47.40;17.95;;;0.50;99.90;;;;;;4988210;28;20031;-71
2024/01/19 06:15:31;;;;;;;44.60;17.00;;;0.50;99.90;;;;;;4990350;28;20026;-71
2024/01/19 06:17:57;;;;;;;43.55;17.00;;;0.50;99.90;;;;;;4988900;28;20027;-70
2024/01/19 06:20:22;;;;;;;37.47;16.48;;;0.50;99.90;;;;;;4995348;28;20046;-70
2024/01/19 06:22:48;;;;;;;45.42;17.25;;;0.50;99.90;;;;;;4989343;28;20785;-72
2024/01/19 06:25:14;;;;;;;33.25;15.18;;;0.50;99.90;;;;;;4994265;28;20026;-72
2024/01/19 06:27:40;;;;;;;36.47;14.50;;;0.50;99.90;;;;;;4984835;28;20497;-72
2024/01/19 06:30:06;;;;;;;38.25;14.48;;;0.50;99.90;;;;;;4988699;28;20023;-73
2024/01/19 06:32:32;;;;;;;33.92;14.20;;;0.50;99.90;;;;;;4989531;28;20509;-71
2024/01/19 06:34:58;;;;;;;34.22;15.38;;;0.50;99.90;;;;;;4987499;28;20113;-71
2024/01/19 06:37:23;;;;;;;31.90;14.82;;;0.50;99.90;;;;;;4990079;28;20041;-71
2024/01/19 06:39:49;;;;;;;28.20;12.48;;;0.60;99.90;;;;;;4993635;28;20026;-71
2024/01/19 06:42:14;;;;;;;25.30;11.30;;;0.60;99.90;;;;;;4993143;28;20030;-71
2024/01/19 06:44:43;;;;;;;23.27;10.75;;;0.60;99.90;;;;;;4984529;28;20122;-72
2024/01/19 06:47:09;;;;;;;21.30;10.38;;;0.60;99.90;;;;;;4990537;28;20045;-72
2024/01/19 06:49:36;;;;;;;23.45;12.13;;;0.60;99.90;;;;;;4990731;28;20026;-72
2024/01/19 06:52:06;;;;;;;25.15;10.95;;;0.60;99.90;;;;;;4991009;28;20124;-72
2024/01/19 06:54:34;;;;;;;23.55;10.98;;;0.60;99.90;;;;;;4992544;28;20018;-72
2024/01/19 06:57:01;;;;;;;18.38;10.43;;;0.60;99.90;;;;;;4992400;28;20078;-72
2024/01/19 06:59:26;;;;;;;24.55;10.70;;;0.50;99.90;;;;;;4993683;28;20501;-72
2024/01/19 07:01:52;;;;;;;23.75;12.25;;;0.50;99.90;;;;;;4990360;28;20038;-72
2024/01/19 07:04:17;;;;;;;25.65;12.40;;;0.50;99.90;;;;;;4991713;28;20033;-72
2024/01/19 07:06:43;;;;;;;23.02;11.95;;;0.60;99.90;;;;;;4991543;28;20031;-73
2024/01/19 07:09:09;;;;;;;28.67;12.60;;;0.50;99.90;;;;;;4991326;28;20042;-72
2024/01/19 07:11:37;;;;;;;83.88;15.75;;;0.60;99.90;;;;;;4985347;28;20030;-72
2024/01/19 07:14:03;;;;;;;117.38;20.88;;;0.60;99.90;;;;;;4990711;28;20501;-71
2024/01/19 07:16:29;;;;;;;58.70;14.38;;;0.60;99.90;;;;;;4984525;28;20029;-71
2024/01/19 07:18:55;;;;;;;26.75;11.93;;;0.60;99.90;;;;;;4988887;28;20102;-71
2024/01/19 07:21:20;;;;;;;25.77;11.55;;;0.60;99.90;;;;;;4992316;28;20026;-72
2024/01/19 07:23:46;;;;;;;22.70;10.25;;;0.60;99.90;;;;;;4995849;28;20373;-72
2024/01/19 07:26:12;;;;;;;21.05;10.35;;;0.60;99.90;;;;;;4993002;28;20034;-72
2024/01/19 07:28:37;;;;;;;22.80;10.55;;;0.60;99.90;;;;;;4991465;28;20102;-72
2024/01/19 07:31:03;;;;;;;23.10;10.30;;;0.60;99.90;;;;;;4989030;28;20070;-71
2024/01/19 07:33:28;;;;;;;19.88;10.43;;;0.60;99.90;;;;;;4990911;28;20625;-71
2024/01/19 07:35:54;;;;;;;17.63;9.68;;;0.60;99.90;;;;;;4991452;28;20390;-72
2024/01/19 07:38:20;;;;;;;20.30;9.60;;;0.50;99.90;;;;;;4991721;28;20413;-71
2024/01/19 07:40:46;;;;;;;24.98;10.27;;;0.50;99.90;;;;;;5009487;28;20395;-72
2024/01/19 07:43:11;;;;;;;19.52;10.35;;;0.50;99.90;;;;;;4991862;28;20026;-72
2024/01/19 07:45:37;;;;;;;21.70;11.70;;;0.50;99.90;;;;;;4991983;28;20458;-72
2024/01/19 07:48:03;;;;;;;21.10;10.77;;;0.50;99.90;;;;;;4994644;28;20486;-71
2024/01/19 07:50:28;;;;;;;22.27;10.57;;;0.50;99.90;;;;;;4991771;28;20573;-72
2024/01/19 07:52:54;;;;;;;18.33;10.25;;;0.50;99.90;;;;;;5008841;28;20032;-72
2024/01/19 07:55:20;;;;;;;24.40;10.63;;;0.50;99.90;;;;;;4990183;28;20026;-72
2024/01/19 07:57:46;;;;;;;20.48;10.38;;;0.50;99.90;;;;;;4983126;28;20030;-71
2024/01/19 08:00:12;;;;;;;26.20;13.00;;;0.60;99.90;;;;;;4994853;28;20023;-71
2024/01/19 08:02:38;;;;;;;22.27;10.90;;;0.50;99.90;;;;;;4996823;28;20026;-72
2024/01/19 08:05:03;;;;;;;25.13;12.20;;;0.60;99.90;;;;;;5006186;28;20597;-72
2024/01/19 08:07:29;;;;;;;28.75;12.73;;;0.60;99.90;;;;;;4990777;28;20117;-72
2024/01/19 08:09:55;;;;;;;25.40;11.13;;;0.50;99.90;;;;;;4991961;28;20022;-72
2024/01/19 08:12:20;;;;;;;38.17;15.23;;;0.60;99.90;;;;;;4990560;28;20085;-72
2024/01/19 08:14:46;;;;;;;29.23;11.13;;;0.60;99.90;;;;;;4990914;28;20101;-72
2024/01/19 08:17:12;;;;;;;28.33;12.00;;;0.60;99.90;;;;;;4991269;28;20084;-72
2024/01/19 08:19:38;;;;;;;26.65;12.05;;;0.60;99.90;;;;;;4992158;28;20027;-72
2024/01/19 08:22:03;;;;;;;21.17;10.90;;;0.60;99.90;;;;;;4994580;28;20026;-73
2024/01/19 08:24:29;;;;;;;20.55;10.00;;;0.60;99.90;;;;;;4992609;28;20045;-72
2024/01/19 08:26:54;;;;;;;20.95;10.55;;;0.60;99.90;;;;;;4990439;28;20031;-72
2024/01/19 08:29:20;;;;;;;22.30;10.88;;;0.60;99.90;;;;;;4990471;28;20165;-72
2024/01/19 08:31:50;;;;;;;19.27;9.23;;;0.60;99.90;;;;;;4990080;28;20031;-71
2024/01/19 08:34:16;;;;;;;32.35;13.88;;;0.70;99.90;;;;;;4984782;28;20030;-72
2024/01/19 08:36:41;;;;;;;25.05;11.75;;;0.70;99.90;;;;;;4990189;28;20038;-72
2024/01/19 08:39:09;;;;;;;22.25;10.43;;;0.70;99.90;;;;;;4990824;28;20022;-72
2024/01/19 08:41:44;;;;;;;18.63;10.00;;;0.70;99.90;;;;;;4989900;28;20053;-72
2024/01/19 08:44:10;;;;;;;18.90;8.95;;;0.70;99.90;;;;;;4991870;28;20417;-72
2024/01/19 08:46:43;;;;;;;21.13;10.48;;;0.70;99.90;;;;;;4991407;28;20113;-72
2024/01/19 08:49:09;;;;;;;16.73;8.90;;;0.80;99.90;;;;;;4990471;28;20104;-72
2024/01/19 08:51:36;;;;;;;21.60;8.95;;;0.80;99.90;;;;;;4989188;28;20501;-72
2024/01/19 08:54:02;;;;;;;18.92;8.93;;;0.90;99.90;;;;;;4990114;28;20027;-72
2024/01/19 08:56:29;;;;;;;15.43;8.27;;;0.90;99.90;;;;;;4988009;28;20085;-72
2024/01/19 08:58:56;;;;;;;22.45;10.07;;;0.90;99.90;;;;;;4991035;28;20505;-72
2024/01/19 09:01:22;;;;;;;24.15;10.85;;;0.90;99.90;;;;;;4991228;28;20062;-72
2024/01/19 09:03:48;;;;;;;17.40;9.23;;;1.00;99.90;;;;;;4991042;28;20067;-72
2024/01/19 09:06:14;;;;;;;17.40;8.90;;;1.00;99.90;;;;;;4990911;28;20029;-72
2024/01/19 09:08:43;;;;;;;17.60;8.90;;;1.00;99.90;;;;;;4991432;28;20042;-72
2024/01/19 09:11:10;;;;;;;15.25;8.20;;;1.00;99.90;;;;;;4990308;28;20041;-71
2024/01/19 09:13:37;;;;;;;17.80;8.85;;;1.00;99.90;;;;;;4991505;28;20110;-72
2024/01/19 09:16:09;;;;;;;17.80;8.98;;;1.00;99.90;;;;;;4993722;28;22809;-72
2024/01/19 09:18:36;;;;;;;22.35;9.27;;;1.00;99.90;;;;;;4995638;28;20065;-72
2024/01/19 09:21:02;;;;;;;27.13;12.75;;;1.00;99.90;;;;;;4995531;28;20034;-72
2024/01/19 09:23:27;;;;;;;29.23;11.07;;;1.00;99.90;;;;;;4992699;28;20034;-71
2024/01/19 09:25:53;;;;;;;20.33;10.18;;;1.00;99.90;;;;;;4993014;28;20088;-72
2024/01/19 09:28:18;;;;;;;21.90;9.52;;;1.10;99.90;;;;;;4993524;28;20037;-71
2024/01/19 09:30:44;;;;;;;17.58;8.60;;;1.10;99.90;;;;;;4991371;28;20046;-72
2024/01/19 09:33:10;;;;;;;19.92;9.60;;;1.20;99.90;;;;;;4994452;28;20489;-71
2024/01/19 09:35:37;;;;;;;17.20;8.80;;;1.20;99.90;;;;;;4994023;28;20102;-71
2024/01/19 09:38:02;;;;;;;28.30;13.25;;;1.20;99.90;;;;;;4993125;28;20018;-71
2024/01/19 09:40:29;;;;;;;32.83;16.20;;;1.30;99.90;;;;;;4995959;28;20037;-72
2024/01/19 09:42:55;;;;;;;49.85;18.90;;;1.20;99.90;;;;;;4984057;28;20062;-72
2024/01/19 09:45:25;;;;;;;25.50;10.55;;;1.20;99.90;;;;;;4989463;28;20034;-72
2024/01/19 09:48:17;;;;;;;26.13;11.40;;;1.20;99.90;;;;;;4989163;28;20405;-72
2024/01/19 09:50:46;;;;;;;29.38;10.70;;;1.20;99.90;;;;;;4990732;28;20038;-72
2024/01/19 09:53:25;;;;;;;22.45;9.30;;;1.20;99.90;;;;;;4991660;28;20026;-72
2024/01/19 09:55:51;;;;;;;17.08;8.43;;;1.30;99.90;;;;;;4994313;28;20803;-72
2024/01/19 09:58:21;;;;;;;14.93;8.25;;;1.30;99.90;;;;;;4993124;28;20054;-71
2024/01/19 10:00:47;;;;;;;18.35;9.45;;;1.30;99.90;;;;;;4993467;28;20097;-72
2024/01/19 10:03:16;;;;;;;23.08;9.10;;;1.40;99.90;;;;;;4992202;28;20093;-72
2024/01/19 10:05:42;;;;;;;18.83;8.85;;;1.40;99.90;;;;;;4991530;28;20030;-72
2024/01/19 10:08:08;;;;;;;16.88;9.73;;;1.40;99.90;;;;;;4988605;28;20041;-72
2024/01/19 10:10:35;;;;;;;21.45;9.35;;;1.50;99.90;;;;;;5007588;28;20031;-71
2024/01/19 10:13:00;;;;;;;20.02;9.07;;;1.50;99.90;;;;;;4989694;28;20018;-72
2024/01/19 10:15:26;;;;;;;21.83;11.32;;;1.50;99.90;;;;;;4989887;28;20440;-71
2024/01/19 10:17:53;;;;;;;20.42;9.23;;;1.60;99.90;;;;;;4989719;28;20039;-72
2024/01/19 10:20:19;;;;;;;21.70;8.23;;;1.60;99.90;;;;;;4988876;28;20114;-72
2024/01/19 10:22:44;;;;;;;18.35;7.82;;;1.70;99.90;;;;;;4993542;28;20363;-72
2024/01/19 10:25:15;;;;;;;19.70;8.95;;;1.70;99.90;;;;;;4989477;28;20153;-72
2024/01/19 10:27:47;;;;;;;16.35;8.43;;;1.70;99.90;;;;;;4992687;28;20022;-72
2024/01/19 10:30:27;;;;;;;16.55;7.35;;;1.70;99.90;;;;;;4991718;28;20588;-72
2024/01/19 10:33:02;;;;;;;12.52;6.55;;;1.80;99.90;;;;;;4991425;28;20018;-71
2024/01/19 10:35:28;;;;;;;19.85;7.45;;;1.90;99.90;;;;;;4989226;28;20525;-72
2024/01/19 10:38:04;;;;;;;18.10;6.95;;;1.90;99.90;;;;;;4991031;28;20041;-72
2024/01/19 10:40:31;;;;;;;14.68;7.50;;;1.90;99.90;;;;;;4990865;28;20041;-72
2024/01/19 10:42:57;;;;;;;15.65;7.80;;;1.90;99.90;;;;;;4989561;28;20113;-72
2024/01/19 10:45:23;;;;;;;19.58;7.65;;;1.90;99.90;;;;;;4989106;28;20158;-72
2024/01/19 10:47:55;;;;;;;10.93;6.30;;;1.90;99.90;;;;;;4988224;28;25899;-72
2024/01/19 10:50:26;;;;;;;12.48;6.32;;;1.80;99.90;;;;;;4988220;28;20491;-72
2024/01/19 10:52:53;;;;;;;17.23;7.65;;;1.80;99.90;;;;;;4992467;28;20077;-72
2024/01/19 10:55:24;;;;;;;15.52;6.90;;;1.80;99.90;;;;;;4987890;28;20027;-72
2024/01/19 10:57:51;;;;;;;13.93;7.75;;;1.90;99.90;;;;;;4984328;28;20030;-72
2024/01/19 11:00:23;;;;;;;11.60;6.15;;;1.90;99.90;;;;;;4985063;28;20109;-72
2024/01/19 11:02:51;;;;;;;17.50;7.60;;;2.00;99.90;;;;;;4984855;28;20033;-72
2024/01/19 11:05:20;;;;;;;18.13;8.02;;;2.00;99.90;;;;;;5002864;28;20026;-72
2024/01/19 11:07:51;;;;;;;13.27;7.65;;;2.00;99.90;;;;;;4987776;28;20026;-71
2024/01/19 11:10:17;;;;;;;13.77;6.70;;;2.10;99.90;;;;;;4987985;28;20429;-71
2024/01/19 11:12:51;;;;;;;12.40;7.00;;;2.10;99.90;;;;;;4985224;28;20026;-71
2024/01/19 11:15:35;;;;;;;15.30;6.63;;;2.00;99.90;;;;;;4985514;28;20339;-72
2024/01/19 11:18:04;;;;;;;20.73;8.57;;;2.00;99.90;;;;;;4988369;28;20098;-72
2024/01/19 11:20:33;;;;;;;13.75;7.07;;;1.90;99.90;;;;;;4987489;28;20081;-71
2024/01/19 11:23:02;;;;;;;13.85;6.93;;;1.90;99.90;;;;;;4983290;28;20062;-71
2024/01/19 11:25:35;;;;;;;13.75;6.95;;;1.80;99.90;;;;;;4984537;28;20031;-71
2024/01/19 11:28:37;;;;;;;14.00;6.67;;;1.70;99.90;;;;;;4979739;28;20030;-71
2024/01/19 11:31:19;;;;;;;15.60;7.03;;;1.70;99.90;;;;;;4982357;28;20130;-72
2024/01/19 11:33:45;;;;;;;15.55;6.70;;;1.70;99.90;;;;;;4982840;28;20144;-72
2024/01/19 11:36:33;;;;;;;12.10;6.57;;;1.60;99.90;;;;;;4984225;28;20489;-72
2024/01/19 11:38:58;;;;;;;16.83;8.65;;;1.60;99.90;;;;;;4981480;28;20503;-71
2024/01/19 11:41:36;;;;;;;11.85;6.80;;;1.70;99.90;;;;;;4986103;28;20026;-71
2024/01/19 11:44:03;;;;;;;12.10;7.07;;;1.60;99.90;;;;;;4978835;28;20069;-72
2024/01/19 11:46:46;;;;;;;10.93;5.90;;;1.70;99.90;;;;;;4977657;28;20133;-71
2024/01/19 11:49:30;;;;;;;12.38;6.00;;;1.70;99.90;;;;;;4990371;28;20385;-71
2024/01/19 11:51:56;;;;;;;;;;;1.70;99.90;;;;;;4985083;28;20500;-71
2024/01/19 11:54:32;;;;;;;12.13;5.38;;;1.80;99.90;;;;;;4987682;28;19910;-72
2024/01/19 11:57:17;;;;;;;13.25;5.72;;;1.90;99.90;;;;;;5003340;28;20371;-72
2024/01/19 11:59:43;;;;;;;10.20;5.15;;;1.90;99.90;;;;;;4981317;28;20034;-72
2024/01/19 12:02:23;;;;;;;8.98;5.07;;;1.90;99.90;;;;;;4981581;28;20030;-72
2024/01/19 12:04:49;;;;;;;10.13;4.93;;;2.00;99.90;;;;;;4980770;28;20037;-72
2024/01/19 12:07:19;;;;;;;10.00;4.57;;;2.00;99.90;;;;;;4983941;28;20086;-72
2024/01/19 12:10:02;;;;;;;9.20;4.78;;;2.10;99.90;;;;;;4987459;28;20104;-72
2024/01/19 12:12:27;;;;;;;12.20;5.78;;;2.10;99.90;;;;;;4986027;28;20065;-72
2024/01/19 12:14:53;;;;;;;9.52;5.53;;;2.10;99.90;;;;;;4984149;28;20030;-72
2024/01/19 12:17:18;;;;;;;13.18;5.13;;;2.10;99.90;;;;;;4986628;28;20041;-72
2024/01/19 12:19:44;;;;;;;9.05;4.68;;;2.00;99.90;;;;;;4985177;28;20049;-72
2024/01/19 12:22:10;;;;;;;10.57;4.60;;;2.00;99.90;;;;;;4988027;28;20456;-72
2024/01/19 12:24:36;;;;;;;7.68;4.40;;;2.00;99.90;;;;;;4976883;28;20035;-72
2024/01/19 12:27:01;;;;;;;11.23;4.53;;;2.00;99.90;;;;;;4978645;28;20113;-72
2024/01/19 12:29:31;;;;;;;9.60;4.68;;;2.00;99.90;;;;;;4978036;28;20133;-72
2024/01/19 12:32:10;;;;;;;7.43;4.40;;;2.00;99.90;;;;;;4984359;28;20026;-72
2024/01/19 12:34:36;;;;;;;7.45;4.03;;;2.00;99.90;;;;;;4988431;28;20038;-72
2024/01/19 12:37:02;;;;;;;8.80;4.90;;;2.00;99.90;;;;;;4985859;28;20031;-72
2024/01/19 12:39:27;;;;;;;8.95;4.72;;;2.00;99.90;;;;;;4982923;28;20424;-72